createdAt,value
2019-02-03T00:00:50.493Z,1.90
2019-02-03T00:03:20.709Z,1.90
2019-02-03T00:05:50.512Z,1.90
2019-02-03T00:08:20.366Z,1.90
2019-02-03T00:10:50.509Z,1.90
2019-02-03T00:13:20.660Z,1.90
2019-02-03T00:15:51.024Z,1.90
2019-02-03T00:18:20.856Z,1.90
2019-02-03T00:20:50.618Z,1.80
2019-02-03T00:23:20.605Z,1.80
2019-02-03T00:25:50.607Z,1.80
2019-02-03T00:28:20.960Z,1.90
2019-02-03T00:30:51.080Z,1.80
2019-02-03T00:33:20.872Z,1.90
2019-02-03T00:35:50.907Z,1.80
2019-02-03T00:38:24.938Z,1.70
2019-02-03T00:40:52.737Z,1.70
2019-02-03T00:43:22.573Z,1.80
2019-02-03T00:45:52.453Z,1.80
2019-02-03T00:48:22.466Z,1.70
2019-02-03T00:50:52.333Z,1.70
2019-02-03T00:53:22.778Z,1.70
2019-02-03T00:55:52.550Z,1.80
2019-02-03T00:58:22.530Z,1.70
2019-02-03T01:00:52.508Z,1.80
2019-02-03T01:03:22.309Z,1.80
2019-02-03T01:05:52.178Z,1.80
2019-02-03T01:08:22.272Z,1.80
2019-02-03T01:10:52.092Z,1.80
2019-02-03T01:13:22.053Z,1.80
2019-02-03T01:15:51.949Z,1.80
2019-02-03T01:18:21.896Z,1.80
2019-02-03T01:20:51.710Z,1.80
2019-02-03T01:23:21.932Z,1.80
2019-02-03T01:25:51.649Z,1.80
2019-02-03T01:28:21.973Z,1.80
2019-02-03T01:30:51.812Z,1.80
2019-02-03T01:33:21.977Z,1.80
2019-02-03T01:35:52.093Z,1.70
2019-02-03T01:38:21.985Z,1.70
2019-02-03T01:40:51.733Z,1.80
2019-02-03T01:43:21.926Z,1.70
2019-02-03T01:45:52.073Z,1.70
2019-02-03T01:48:21.853Z,1.70
2019-02-03T01:50:51.574Z,1.70
2019-02-03T01:53:21.378Z,1.70
2019-02-03T01:55:51.525Z,1.70
2019-02-03T01:58:21.342Z,1.70
2019-02-03T02:00:51.165Z,1.60
2019-02-03T02:03:21.021Z,1.60
2019-02-03T02:05:50.864Z,1.60
2019-02-03T02:08:20.744Z,1.60
2019-02-03T02:10:50.657Z,1.60
2019-02-03T02:13:20.416Z,1.60
2019-02-03T02:15:50.218Z,1.60
2019-02-03T02:18:20.043Z,1.60
2019-02-03T02:20:49.808Z,1.60
2019-02-03T02:23:19.673Z,1.50
2019-02-03T02:25:49.814Z,1.50
2019-02-03T02:28:19.618Z,1.40
2019-02-03T02:30:49.392Z,1.50
2019-02-03T02:33:19.231Z,1.40
2019-02-03T02:35:49.052Z,1.50
2019-02-03T02:38:18.840Z,1.50
2019-02-03T02:40:48.623Z,1.50
2019-02-03T02:43:18.524Z,1.50
2019-02-03T02:45:48.493Z,1.50
2019-02-03T02:48:18.254Z,1.50
2019-02-03T02:50:48.143Z,1.60
2019-02-03T02:53:18.155Z,1.60
2019-02-03T02:55:47.996Z,1.60
2019-02-03T02:58:17.841Z,1.60
2019-02-03T03:00:47.738Z,1.60
2019-02-03T03:03:17.623Z,1.60
2019-02-03T03:05:47.775Z,1.60
2019-02-03T03:08:19.664Z,1.60
2019-02-03T03:10:48.962Z,1.60
2019-02-03T03:13:18.690Z,1.60
2019-02-03T03:15:48.610Z,1.60
2019-02-03T03:18:18.899Z,1.60
2019-02-03T03:20:48.784Z,1.60
2019-02-03T03:23:18.540Z,1.60
2019-02-03T03:25:48.345Z,1.50
2019-02-03T03:28:18.417Z,1.60
2019-02-03T03:30:48.225Z,1.60
2019-02-03T03:33:18.084Z,1.50
2019-02-03T03:35:47.812Z,1.40
2019-02-03T03:38:17.686Z,1.40
2019-02-03T03:40:47.434Z,1.50
2019-02-03T03:43:17.250Z,1.50
2019-02-03T03:45:47.834Z,1.50
2019-02-03T03:48:17.596Z,1.40
2019-02-03T03:50:47.483Z,1.40
2019-02-03T03:53:17.257Z,1.30
2019-02-03T03:55:47.160Z,1.30
2019-02-03T03:58:17.317Z,1.30
2019-02-03T04:00:48.546Z,1.20
2019-02-03T04:03:18.485Z,1.20
2019-02-03T04:05:48.430Z,1.20
2019-02-03T04:08:18.111Z,1.10
2019-02-03T04:10:48.326Z,1.10
2019-02-03T04:13:18.094Z,1.10
2019-02-03T04:15:50.184Z,1.00
2019-02-03T04:18:19.945Z,1.00
2019-02-03T04:20:49.954Z,1.00
2019-02-03T04:23:20.182Z,1.00
2019-02-03T04:25:53.298Z,1.00
2019-02-03T04:28:23.363Z,1.00
2019-02-03T04:30:53.139Z,1.00
2019-02-03T04:33:23.047Z,0.90
2019-02-03T04:35:52.811Z,0.80
2019-02-03T04:38:23.697Z,0.80
2019-02-03T04:40:53.560Z,0.80
2019-02-03T04:43:25.516Z,0.70
2019-02-03T04:45:55.338Z,0.70
2019-02-03T04:48:25.432Z,0.70
2019-02-03T04:50:55.227Z,0.60
2019-02-03T04:53:25.060Z,0.60
2019-02-03T04:55:54.875Z,0.70
2019-02-03T04:58:24.588Z,0.70
2019-02-03T05:00:54.435Z,0.60
2019-02-03T05:03:24.427Z,0.60
2019-02-03T05:05:54.257Z,0.50
2019-02-03T05:08:24.012Z,0.50
2019-02-03T05:10:53.725Z,0.50
2019-02-03T05:13:23.554Z,0.50
2019-02-03T05:16:01.038Z,0.50
2019-02-03T05:18:30.831Z,0.50
2019-02-03T05:21:00.577Z,0.40
2019-02-03T05:23:30.390Z,0.40
2019-02-03T05:26:00.152Z,0.40
2019-02-03T05:28:30.291Z,0.40
2019-02-03T05:31:00.019Z,0.40
2019-02-03T05:33:30.180Z,0.40
2019-02-03T05:35:59.898Z,0.40
2019-02-03T05:38:29.786Z,0.40
2019-02-03T05:40:59.537Z,0.40
2019-02-03T05:43:29.293Z,0.40
2019-02-03T05:45:59.166Z,0.40
2019-02-03T05:48:28.953Z,0.40
2019-02-03T05:50:58.821Z,0.40
2019-02-03T05:53:28.708Z,0.50
2019-02-03T05:55:58.503Z,0.50
2019-02-03T05:58:28.390Z,0.40
2019-02-03T06:00:58.278Z,0.40
2019-02-03T06:03:28.119Z,0.40
2019-02-03T06:05:57.864Z,0.30
2019-02-03T06:08:29.350Z,0.30
2019-02-03T06:10:59.098Z,0.30
2019-02-03T06:13:28.880Z,0.40
2019-02-03T06:15:58.616Z,0.30
2019-02-03T06:18:28.417Z,0.30
2019-02-03T06:20:58.488Z,0.30
2019-02-03T06:23:28.262Z,0.30
2019-02-03T06:25:58.031Z,0.40
2019-02-03T06:28:27.878Z,0.40
2019-02-03T06:31:17.324Z,0.40
2019-02-03T06:33:53.928Z,0.40
2019-02-03T06:36:24.484Z,0.40
2019-02-03T06:38:55.221Z,0.40
2019-02-03T06:41:25.021Z,0.30
2019-02-03T06:43:54.828Z,0.30
2019-02-03T06:46:43.306Z,0.30
2019-02-03T06:49:31.997Z,0.30
2019-02-03T06:52:01.786Z,0.30
2019-02-03T06:54:31.492Z,0.30
2019-02-03T06:57:01.405Z,0.40
2019-02-03T06:59:31.263Z,0.40
2019-02-03T07:02:01.437Z,0.40
2019-02-03T07:04:31.199Z,0.30
2019-02-03T07:07:00.957Z,0.30
2019-02-03T07:09:30.738Z,0.30
2019-02-03T07:12:00.505Z,0.30
2019-02-03T07:14:30.268Z,0.30
2019-02-03T07:17:00.074Z,0.30
2019-02-03T07:19:29.926Z,0.30
2019-02-03T07:21:59.658Z,0.30
2019-02-03T07:24:29.425Z,0.30
2019-02-03T07:27:00.334Z,0.20
2019-02-03T07:29:30.385Z,0.20
2019-02-03T07:32:00.414Z,0.20
2019-02-03T07:34:30.241Z,0.20
2019-02-03T07:37:00.082Z,0.20
2019-02-03T07:39:29.942Z,0.20
2019-02-03T07:42:00.078Z,0.20
2019-02-03T07:44:29.883Z,0.20
2019-02-03T07:46:59.669Z,0.20
2019-02-03T07:49:29.519Z,0.20
2019-02-03T07:51:59.433Z,0.20
2019-02-03T07:54:29.256Z,0.20
2019-02-03T07:56:59.185Z,0.20
2019-02-03T07:59:28.961Z,0.20
2019-02-03T08:01:58.736Z,0.20
2019-02-03T08:04:28.520Z,0.20
2019-02-03T08:06:58.382Z,0.20
2019-02-03T08:09:28.665Z,0.20
2019-02-03T08:11:58.407Z,0.20
2019-02-03T08:14:28.247Z,0.20
2019-02-03T08:16:58.321Z,0.30
2019-02-03T08:19:28.194Z,0.30
2019-02-03T08:21:58.078Z,0.20
2019-02-03T08:24:27.828Z,0.30
2019-02-03T08:26:57.792Z,0.20
2019-02-03T08:29:27.615Z,0.20
2019-02-03T08:31:57.437Z,0.20
2019-02-03T08:34:27.165Z,0.30
2019-02-03T08:36:57.301Z,0.30
2019-02-03T08:39:27.058Z,0.30
2019-02-03T08:41:56.821Z,0.30
2019-02-03T08:44:26.725Z,0.30
2019-02-03T08:46:56.521Z,0.30
2019-02-03T08:49:26.269Z,0.30
2019-02-03T08:51:56.110Z,0.40
2019-02-03T08:54:25.846Z,0.40
2019-02-03T08:56:55.630Z,0.30
2019-02-03T08:59:25.382Z,0.30
2019-02-03T09:01:55.154Z,0.40
2019-02-03T09:04:25.062Z,0.40
2019-02-03T09:06:57.518Z,0.30
2019-02-03T09:09:26.408Z,0.30
2019-02-03T09:11:56.241Z,0.30
2019-02-03T09:14:26.024Z,0.30
2019-02-03T09:16:56.169Z,0.30
2019-02-03T09:19:27.321Z,0.40
2019-02-03T09:21:57.041Z,0.40
2019-02-03T09:24:26.860Z,0.50
2019-02-03T09:26:56.662Z,0.40
2019-02-03T09:29:26.419Z,0.40
2019-02-03T09:31:56.236Z,0.40
2019-02-03T09:34:25.961Z,0.40
2019-02-03T09:36:55.785Z,0.40
2019-02-03T09:39:25.547Z,0.30
2019-02-03T09:41:55.284Z,0.30
2019-02-03T09:44:25.278Z,0.40
2019-02-03T09:46:55.039Z,0.40
2019-02-03T09:49:24.948Z,0.40
2019-02-03T09:51:54.678Z,0.40
2019-02-03T09:54:24.468Z,0.30
2019-02-03T09:56:55.462Z,0.40
2019-02-03T09:59:25.346Z,0.40
2019-02-03T10:01:56.316Z,0.30
2019-02-03T10:04:26.359Z,0.40
2019-02-03T10:06:57.233Z,0.40
2019-02-03T10:09:26.986Z,0.40
2019-02-03T10:11:57.211Z,0.40
2019-02-03T10:14:27.666Z,0.40
2019-02-03T10:16:59.335Z,0.40
2019-02-03T10:19:30.024Z,0.40
2019-02-03T10:21:59.862Z,0.40
2019-02-03T10:24:41.681Z,0.40
2019-02-03T10:27:02.643Z,0.40
2019-02-03T10:29:32.533Z,0.40
2019-02-03T10:32:02.933Z,0.30
2019-02-03T10:34:33.085Z,0.40
2019-02-03T10:37:03.720Z,0.40
2019-02-03T10:39:33.955Z,0.50
2019-02-03T10:42:03.771Z,0.50
2019-02-03T10:44:34.163Z,0.50
2019-02-03T10:47:04.237Z,0.50
2019-02-03T10:49:34.686Z,0.50
2019-02-03T10:52:05.545Z,0.50
2019-02-03T10:54:37.760Z,0.50
2019-02-03T10:57:10.078Z,0.50
2019-02-03T10:59:40.534Z,0.50
2019-02-03T11:02:11.032Z,0.40
2019-02-03T11:04:40.893Z,0.40
2019-02-03T11:07:12.804Z,0.40
2019-02-03T11:09:43.895Z,0.50
2019-02-03T11:12:14.233Z,0.50
2019-02-03T11:14:44.382Z,0.50
2019-02-03T11:17:15.706Z,0.50
2019-02-03T11:19:45.615Z,0.50
2019-02-03T11:22:21.191Z,0.50
2019-02-03T11:24:52.154Z,0.50
2019-02-03T11:27:29.339Z,0.50
2019-02-03T11:29:59.747Z,0.50
2019-02-03T11:32:30.503Z,0.50
2019-02-03T11:35:02.266Z,0.50
2019-02-03T11:37:32.769Z,0.50
2019-02-03T11:40:04.358Z,0.40
2019-02-03T11:42:34.737Z,0.40
2019-02-03T11:45:06.631Z,0.40
2019-02-03T11:47:36.625Z,0.40
2019-02-03T11:50:07.664Z,0.40
2019-02-03T11:52:43.256Z,0.40
2019-02-03T11:55:13.559Z,0.40
2019-02-03T11:57:43.540Z,0.20
2019-02-03T12:00:19.729Z,0.20
2019-02-03T12:02:49.520Z,0.30
2019-02-03T12:05:21.826Z,0.20
2019-02-03T12:07:51.603Z,0.30
2019-02-03T12:10:24.634Z,0.30
2019-02-03T12:12:54.733Z,0.30
2019-02-03T12:15:24.754Z,0.30
2019-02-03T12:17:55.652Z,0.30
2019-02-03T12:20:25.751Z,0.30
2019-02-03T12:22:55.617Z,0.30
2019-02-03T12:25:27.857Z,0.30
2019-02-03T12:27:58.164Z,0.30
2019-02-03T12:30:30.470Z,0.20
2019-02-03T12:33:00.969Z,0.30
2019-02-03T12:35:30.971Z,0.30
2019-02-03T12:38:01.550Z,0.30
2019-02-03T12:40:32.588Z,0.40
2019-02-03T12:43:06.470Z,0.40
2019-02-03T12:45:36.596Z,0.40
2019-02-03T12:48:09.612Z,0.40
2019-02-03T12:50:40.139Z,0.30
2019-02-03T12:53:10.351Z,0.30
2019-02-03T12:55:40.880Z,0.20
2019-02-03T12:58:19.358Z,0.20
2019-02-03T13:00:45.878Z,0.20
2019-02-03T13:03:15.745Z,0.20
2019-02-03T13:05:45.497Z,0.20
2019-02-03T13:08:18.874Z,0.30
2019-02-03T13:10:48.817Z,0.20
2019-02-03T13:13:18.541Z,0.20
2019-02-03T13:15:50.966Z,0.30
2019-02-03T13:18:21.220Z,0.30
2019-02-03T13:20:51.145Z,0.30
2019-02-03T13:23:21.059Z,0.30
2019-02-03T13:25:50.970Z,0.40
2019-02-03T13:28:20.818Z,0.30
2019-02-03T13:30:52.705Z,0.30
2019-02-03T13:33:23.687Z,0.30
2019-02-03T13:35:53.432Z,0.30
2019-02-03T13:38:25.681Z,0.20
2019-02-03T13:40:55.800Z,0.30
2019-02-03T13:43:25.696Z,0.30
2019-02-03T13:45:56.138Z,0.30
2019-02-03T13:48:25.945Z,0.20
2019-02-03T13:50:55.662Z,0.20
2019-02-03T13:53:25.545Z,0.30
2019-02-03T13:55:55.584Z,0.20
2019-02-03T13:58:36.154Z,0.20
2019-02-03T14:00:56.814Z,0.20
2019-02-03T14:03:26.940Z,0.20
2019-02-03T14:05:57.844Z,0.20
2019-02-03T14:08:28.434Z,0.20
2019-02-03T14:10:58.378Z,0.20
2019-02-03T14:13:29.536Z,0.10
2019-02-03T14:15:59.338Z,0.10
2019-02-03T14:18:29.155Z,0.10
2019-02-03T14:21:02.424Z,0.10
2019-02-03T14:23:32.249Z,0.00
2019-02-03T14:26:05.771Z,0.10
2019-02-03T14:28:35.928Z,0.00
2019-02-03T14:31:06.507Z,0.00
2019-02-03T14:33:36.372Z,0.00
2019-02-03T14:36:06.268Z,0.00
2019-02-03T14:38:36.082Z,0.00
2019-02-03T14:41:06.152Z,0.00
2019-02-03T14:43:35.985Z,0.00
2019-02-03T14:46:05.948Z,0.00
2019-02-03T14:48:35.772Z,0.00
2019-02-03T14:51:05.775Z,0.10
2019-02-03T14:53:35.581Z,0.10
2019-02-03T14:56:05.798Z,0.00
2019-02-03T14:58:35.988Z,0.00
2019-02-03T15:01:05.977Z,0.00
2019-02-03T15:03:35.795Z,0.00
2019-02-03T15:06:05.873Z,0.00
2019-02-03T15:08:35.668Z,-0.10
2019-02-03T15:11:05.688Z,-0.10
2019-02-03T15:13:35.621Z,-0.10
2019-02-03T15:16:05.897Z,-0.10
2019-02-03T15:18:35.727Z,-0.10
2019-02-03T15:21:06.086Z,-0.10
2019-02-03T15:23:35.920Z,-0.10
2019-02-03T15:26:05.833Z,-0.10
2019-02-03T15:28:36.031Z,-0.10
2019-02-03T15:31:05.913Z,-0.20
2019-02-03T15:33:35.725Z,-0.20
2019-02-03T15:36:05.598Z,-0.20
2019-02-03T15:38:35.357Z,-0.20
2019-02-03T15:41:05.418Z,-0.20
2019-02-03T15:43:35.443Z,-0.30
2019-02-03T15:46:07.896Z,-0.30
2019-02-03T15:48:37.180Z,-0.30
2019-02-03T15:51:07.590Z,-0.40
2019-02-03T15:53:37.731Z,-0.40
2019-02-03T15:56:07.677Z,-0.40
2019-02-03T15:58:37.464Z,-0.40
2019-02-03T16:01:07.833Z,-0.50
2019-02-03T16:03:38.210Z,-0.50
2019-02-03T16:06:09.330Z,-0.50
2019-02-03T16:08:39.362Z,-0.60
2019-02-03T16:11:09.985Z,-0.60
2019-02-03T16:13:40.234Z,-0.70
2019-02-03T16:16:11.040Z,-0.70
2019-02-03T16:18:41.386Z,-0.70
2019-02-03T16:21:11.983Z,-0.70
2019-02-03T16:23:42.189Z,-0.70
2019-02-03T16:26:17.824Z,-0.70
2019-02-03T16:28:48.189Z,-0.70
2019-02-03T16:31:18.308Z,-0.70
2019-02-03T16:33:48.953Z,-0.80
2019-02-03T16:36:18.688Z,-0.80
2019-02-03T16:38:48.775Z,-0.80
2019-02-03T16:41:18.680Z,-0.80
2019-02-03T16:43:49.759Z,-0.70
2019-02-03T16:46:19.701Z,-0.70
2019-02-03T16:48:50.505Z,-0.70
2019-02-03T16:51:21.120Z,-0.60
2019-02-03T16:53:51.348Z,-0.70
2019-02-03T16:56:21.173Z,-0.70
2019-02-03T16:58:51.627Z,-0.70
2019-02-03T17:01:21.880Z,-0.70
2019-02-03T17:03:51.648Z,-0.80
2019-02-03T17:06:21.372Z,-0.80
2019-02-03T17:08:53.566Z,-0.80
2019-02-03T17:11:23.309Z,-0.90
2019-02-03T17:14:00.628Z,-0.90
2019-02-03T17:16:29.896Z,-0.90
2019-02-03T17:19:00.226Z,-0.90
2019-02-03T17:21:30.608Z,-0.90
2019-02-03T17:24:03.441Z,-0.90
2019-02-03T17:26:32.522Z,-0.90
2019-02-03T17:29:02.712Z,-1.00
2019-02-03T17:31:34.193Z,-0.90
2019-02-03T17:34:04.834Z,-0.90
2019-02-03T17:36:35.128Z,-0.90
2019-02-03T17:39:07.968Z,-0.90
2019-02-03T17:41:37.870Z,-0.80
2019-02-03T17:44:12.836Z,-0.80
2019-02-03T17:46:40.063Z,-0.80
2019-02-03T17:49:10.184Z,-0.80
2019-02-03T17:51:40.002Z,-0.80
2019-02-03T17:54:14.264Z,-0.70
2019-02-03T17:56:46.663Z,-0.80
2019-02-03T17:59:16.445Z,-0.80
2019-02-03T18:01:46.366Z,-0.80
2019-02-03T18:04:17.232Z,-0.80
2019-02-03T18:06:47.637Z,-0.80
2019-02-03T18:09:17.471Z,-0.80
2019-02-03T18:11:47.910Z,-0.70
2019-02-03T18:14:24.502Z,-0.80
2019-02-03T18:16:50.131Z,-0.80
2019-02-03T18:19:20.618Z,-0.80
2019-02-03T18:21:50.985Z,-0.80
2019-02-03T18:24:21.446Z,-0.70
2019-02-03T18:26:51.734Z,-0.80
2019-02-03T18:29:22.115Z,-0.80
2019-02-03T18:31:52.489Z,-0.80
2019-02-03T18:34:23.072Z,-0.80
2019-02-03T18:36:55.185Z,-0.80
2019-02-03T18:39:26.030Z,-0.80
2019-02-03T18:41:56.995Z,-0.80
2019-02-03T18:44:35.630Z,-0.80
2019-02-03T18:46:59.071Z,-0.70
2019-02-03T18:49:29.089Z,-0.70
2019-02-03T18:51:58.957Z,-0.70
2019-02-03T18:54:28.924Z,-0.80
2019-02-03T18:56:58.898Z,-0.70
2019-02-03T18:59:28.948Z,-0.70
2019-02-03T19:01:59.287Z,-0.70
2019-02-03T19:04:29.691Z,-0.60
2019-02-03T19:07:00.907Z,-0.70
2019-02-03T19:09:30.815Z,-0.70
2019-02-03T19:12:01.752Z,-0.60
2019-02-03T19:14:32.481Z,-0.60
2019-02-03T19:17:02.425Z,-0.60
2019-02-03T19:19:34.094Z,-0.60
2019-02-03T19:22:04.770Z,-0.70
2019-02-03T19:24:34.929Z,-0.60
2019-02-03T19:27:17.515Z,-0.60
2019-02-03T19:29:47.595Z,-0.60
2019-02-03T19:32:18.024Z,-0.70
2019-02-03T19:34:48.710Z,-0.70
2019-02-03T19:37:18.916Z,-0.70
2019-02-03T19:39:49.300Z,-0.70
2019-02-03T19:42:19.512Z,-0.70
2019-02-03T19:44:58.206Z,-0.70
2019-02-03T19:47:22.089Z,-0.70
2019-02-03T19:49:53.019Z,-0.70
2019-02-03T19:52:23.466Z,-0.70
2019-02-03T19:54:53.885Z,-0.70
2019-02-03T19:57:26.074Z,-0.70
2019-02-03T19:59:56.395Z,-0.80
2019-02-03T20:02:27.167Z,-0.70
2019-02-03T20:04:59.085Z,-0.70
2019-02-03T20:07:29.608Z,-0.70
2019-02-03T20:09:59.850Z,-0.70
2019-02-03T20:12:33.753Z,-0.70
2019-02-03T20:15:10.141Z,-0.70
2019-02-03T20:17:39.418Z,-0.70
2019-02-03T20:20:13.305Z,-0.70
2019-02-03T20:22:44.198Z,-0.70
2019-02-03T20:25:19.116Z,-0.70
2019-02-03T20:27:49.801Z,-0.70
2019-02-03T20:30:35.841Z,-0.70
2019-02-03T20:32:54.387Z,-0.70
2019-02-03T20:35:29.688Z,-0.70
2019-02-03T20:38:00.267Z,-0.70
2019-02-03T20:40:33.505Z,-0.70
2019-02-03T20:43:06.999Z,-0.60
2019-02-03T20:45:48.461Z,-0.60
2019-02-03T20:48:10.937Z,-0.60
2019-02-03T20:50:42.855Z,-0.60
2019-02-03T20:53:13.408Z,-0.60
2019-02-03T20:55:45.147Z,-0.60
2019-02-03T20:58:18.477Z,-0.60
2019-02-03T21:00:48.799Z,-0.60
2019-02-03T21:03:19.907Z,-0.60
2019-02-03T21:05:50.563Z,-0.60
2019-02-03T21:08:20.857Z,-0.60
2019-02-03T21:10:51.043Z,-0.60
2019-02-03T21:13:21.277Z,-0.60
2019-02-03T21:15:51.838Z,-0.60
2019-02-03T21:18:22.468Z,-0.60
2019-02-03T21:20:53.831Z,-0.50
2019-02-03T21:23:25.791Z,-0.60
2019-02-03T21:25:57.885Z,-0.60
2019-02-03T21:28:28.352Z,-0.60
2019-02-03T21:30:58.626Z,-0.60
2019-02-03T21:33:28.668Z,-0.60
2019-02-03T21:35:58.963Z,-0.70
2019-02-03T21:38:30.192Z,-0.60
2019-02-03T21:41:00.529Z,-0.70
2019-02-03T21:43:30.748Z,-0.60
2019-02-03T21:46:00.831Z,-0.70
2019-02-03T21:48:31.241Z,-0.70
2019-02-03T21:51:01.888Z,-0.70
2019-02-03T21:53:32.095Z,-0.60
2019-02-03T21:56:01.977Z,-0.60
2019-02-03T21:58:32.437Z,-0.70
2019-02-03T22:01:02.588Z,-0.70
2019-02-03T22:03:32.728Z,-0.70
2019-02-03T22:06:02.947Z,-0.70
2019-02-03T22:08:32.917Z,-0.70
2019-02-03T22:11:03.077Z,-0.70
2019-02-03T22:13:33.728Z,-0.70
2019-02-03T22:16:03.757Z,-0.70
2019-02-03T22:18:33.932Z,-0.70
2019-02-03T22:21:04.261Z,-0.80
2019-02-03T22:23:34.866Z,-0.70
2019-02-03T22:26:05.370Z,-0.80
2019-02-03T22:28:35.610Z,-0.80
2019-02-03T22:31:06.013Z,-0.80
2019-02-03T22:33:36.263Z,-0.80
2019-02-03T22:36:06.209Z,-0.80
2019-02-03T22:38:35.956Z,-0.80
2019-02-03T22:41:06.281Z,-0.80
2019-02-03T22:43:38.016Z,-0.80
2019-02-03T22:46:08.708Z,-0.80
2019-02-03T22:48:38.959Z,-0.80
2019-02-03T22:51:11.532Z,-0.80
2019-02-03T22:53:42.864Z,-0.70
2019-02-03T22:56:12.947Z,-0.70
2019-02-03T22:58:43.076Z,-0.70
2019-02-03T23:01:18.702Z,-0.70
2019-02-03T23:03:57.634Z,-0.70
2019-02-03T23:06:29.365Z,-0.80
2019-02-03T23:09:01.132Z,-0.70
2019-02-03T23:11:30.913Z,-0.80
2019-02-03T23:14:00.726Z,-0.70
2019-02-03T23:16:30.625Z,-0.80
2019-02-03T23:19:00.457Z,-0.80
2019-02-03T23:21:30.578Z,-0.70
2019-02-03T23:24:00.257Z,-0.70
2019-02-03T23:26:30.092Z,-0.70
2019-02-03T23:28:59.842Z,-0.70
2019-02-03T23:31:29.791Z,-0.70
2019-02-03T23:33:59.606Z,-0.70
2019-02-03T23:36:29.561Z,-0.70
2019-02-03T23:38:59.393Z,-0.70
2019-02-03T23:41:29.308Z,-0.70
2019-02-03T23:43:59.061Z,-0.70
2019-02-03T23:46:32.094Z,-0.70
2019-02-03T23:49:03.032Z,-0.70
2019-02-03T23:51:34.115Z,-0.70
2019-02-03T23:54:03.897Z,-0.70
2019-02-03T23:56:33.890Z,-0.70
2019-02-03T23:59:03.648Z,-0.80
